< < Back
Terminal Aerodrome Forecast


Current Version              Previous Versions:   1  2  3  4  5  6  7  8  9  

Terminal Aerodrome Forecast

730
FTUS42 KTAE 241700
TAFTLH
TAF
KTLH 241720Z 2418/2518 22010KT P6SM BKN018
     FM241900 22010KT P6SM VCTS SCT030CB BKN040
     FM242200 21005KT P6SM BKN100
     FM250300 22005KT P6SM SCT030=

Latest METAR

977
SAUS80 KWBC 252300 RRA
MTRTLH
METAR KTLH 252253Z VRB03KT 10SM FEW047 SCT060 BKN250 29/23 A2999 RMK AO2
SLP154 T02890233


USA.gov is the U.S. government's official web portal to all federal, state and local government web resources and services.